createdAt,value
2022-11-25T00:01:31.275Z,61.96
2022-11-25T00:03:59.705Z,62.03
2022-11-25T00:06:32.990Z,62.15
2022-11-25T00:09:11.135Z,62.35
2022-11-25T00:11:41.375Z,62.38
2022-11-25T00:14:13.538Z,62.48
2022-11-25T00:16:44.980Z,62.14
2022-11-25T00:19:14.781Z,62.35
2022-11-25T00:21:41.648Z,61.98
2022-11-25T00:24:08.763Z,62.00
2022-11-25T00:26:36.711Z,62.32
2022-11-25T00:29:07.830Z,62.24
2022-11-25T00:31:37.976Z,62.54
2022-11-25T00:34:05.437Z,62.39
2022-11-25T00:36:35.493Z,62.25
2022-11-25T00:39:06.434Z,62.19
2022-11-25T00:41:52.196Z,62.24
2022-11-25T00:44:37.499Z,62.53
2022-11-25T00:47:18.179Z,62.50
2022-11-25T00:49:53.827Z,62.40
2022-11-25T00:52:25.247Z,62.43
2022-11-25T00:54:53.082Z,62.52
2022-11-25T00:57:22.733Z,62.46
2022-11-25T00:59:49.910Z,62.50
2022-11-25T01:02:18.071Z,62.39
2022-11-25T01:04:45.891Z,62.43
2022-11-25T01:07:16.035Z,62.74
2022-11-25T01:09:42.959Z,62.57
2022-11-25T01:12:09.856Z,62.15
2022-11-25T01:14:37.350Z,62.37
2022-11-25T01:17:04.773Z,62.44
2022-11-25T01:19:33.146Z,62.37
2022-11-25T01:22:00.269Z,62.55
2022-11-25T01:24:27.166Z,62.32
2022-11-25T01:26:55.768Z,62.55
2022-11-25T01:29:23.048Z,62.33
2022-11-25T01:31:50.364Z,62.46
2022-11-25T01:34:24.575Z,62.49
2022-11-25T01:36:51.693Z,62.60
2022-11-25T01:39:31.683Z,62.85
2022-11-25T01:41:59.870Z,62.75
2022-11-25T01:44:30.552Z,62.75
2022-11-25T01:47:04.915Z,62.96
2022-11-25T01:49:53.431Z,62.94
2022-11-25T01:52:32.529Z,63.12
2022-11-25T01:55:08.129Z,63.10
2022-11-25T01:57:47.637Z,63.22
2022-11-25T02:00:15.704Z,63.16
2022-11-25T02:02:46.807Z,63.05
2022-11-25T02:05:18.693Z,63.26
2022-11-25T02:07:48.912Z,63.19
2022-11-25T02:10:25.831Z,63.20
2022-11-25T02:12:53.380Z,63.34
2022-11-25T02:15:21.801Z,63.27
2022-11-25T02:17:49.341Z,63.10
2022-11-25T02:20:20.702Z,63.26
2022-11-25T02:23:16.191Z,63.26
2022-11-25T02:25:46.846Z,63.12
2022-11-25T02:28:23.133Z,63.19
2022-11-25T02:30:50.738Z,63.13
2022-11-25T02:33:19.430Z,62.79
2022-11-25T02:36:14.836Z,62.81
2022-11-25T02:38:48.154Z,62.69
2022-11-25T02:41:26.342Z,62.91
2022-11-25T02:43:58.887Z,62.75
2022-11-25T02:46:27.471Z,62.55
2022-11-25T02:49:12.487Z,62.59
2022-11-25T02:51:44.863Z,62.34
2022-11-25T02:54:14.498Z,62.33
2022-11-25T02:56:41.637Z,62.33
2022-11-25T02:59:09.197Z,62.30
2022-11-25T03:01:38.141Z,62.08
2022-11-25T03:04:07.315Z,62.26
2022-11-25T03:06:34.678Z,62.05
2022-11-25T03:09:01.676Z,62.34
2022-11-25T03:11:46.933Z,62.13
2022-11-25T03:14:15.071Z,62.49
2022-11-25T03:16:43.594Z,62.33
2022-11-25T03:19:10.631Z,62.64
2022-11-25T03:21:37.552Z,62.30
2022-11-25T03:24:04.654Z,62.42
2022-11-25T03:26:31.556Z,62.48
2022-11-25T03:28:58.455Z,62.42
2022-11-25T03:31:25.460Z,62.51
2022-11-25T03:33:52.461Z,62.33
2022-11-25T03:36:21.059Z,62.33
2022-11-25T03:38:48.127Z,62.37
2022-11-25T03:41:15.045Z,62.23
2022-11-25T03:43:42.275Z,62.46
2022-11-25T03:46:09.177Z,62.13
2022-11-25T03:48:36.455Z,62.33
2022-11-25T03:51:03.405Z,61.88
2022-11-25T03:53:30.498Z,62.03
2022-11-25T03:56:00.161Z,62.18
2022-11-25T03:58:27.075Z,62.41
2022-11-25T04:00:59.350Z,62.13
2022-11-25T04:03:26.283Z,62.43
2022-11-25T04:05:53.190Z,62.34
2022-11-25T04:08:20.937Z,62.68
2022-11-25T04:10:51.851Z,62.76
2022-11-25T04:13:22.825Z,62.77
2022-11-25T04:15:52.140Z,62.93
2022-11-25T04:18:20.362Z,62.99
2022-11-25T04:20:51.262Z,63.10
2022-11-25T04:23:18.167Z,63.10
2022-11-25T04:25:53.537Z,63.28
2022-11-25T04:28:26.381Z,63.23
2022-11-25T04:30:53.367Z,63.44
2022-11-25T04:33:20.271Z,63.55
2022-11-25T04:35:48.538Z,63.59
2022-11-25T04:38:15.453Z,63.41
2022-11-25T04:40:42.759Z,63.27
2022-11-25T04:43:19.638Z,63.16
2022-11-25T04:46:20.126Z,63.40
2022-11-25T04:48:49.994Z,63.32
2022-11-25T04:51:17.275Z,63.68
2022-11-25T04:53:45.775Z,63.70
2022-11-25T04:56:19.515Z,63.71
2022-11-25T04:59:08.233Z,63.63
2022-11-25T05:01:39.138Z,63.59
2022-11-25T05:04:31.958Z,63.47
2022-11-25T05:06:58.847Z,63.75
2022-11-25T05:09:26.198Z,63.62
2022-11-25T05:12:05.969Z,63.54
2022-11-25T05:14:34.882Z,63.71
2022-11-25T05:17:04.055Z,63.56
2022-11-25T05:19:31.371Z,63.69
2022-11-25T05:21:58.354Z,63.70
2022-11-25T05:24:26.045Z,63.65
2022-11-25T05:26:53.885Z,63.67
2022-11-25T05:29:21.062Z,63.41
2022-11-25T05:31:48.419Z,63.61
2022-11-25T05:34:16.118Z,63.80
2022-11-25T05:36:44.431Z,63.61
2022-11-25T05:39:12.042Z,63.74
2022-11-25T05:42:04.921Z,64.00
2022-11-25T05:44:31.994Z,63.77
2022-11-25T05:46:59.118Z,63.67
2022-11-25T05:49:26.061Z,63.92
2022-11-25T05:51:52.948Z,63.82
2022-11-25T05:54:22.474Z,63.82
2022-11-25T05:56:50.122Z,63.48
2022-11-25T05:59:31.633Z,63.68
2022-11-25T06:02:05.219Z,63.75
2022-11-25T06:04:32.706Z,63.56
2022-11-25T06:06:59.651Z,63.61
2022-11-25T06:09:26.620Z,63.60
2022-11-25T06:11:53.577Z,63.69
2022-11-25T06:14:20.482Z,63.98
2022-11-25T06:16:49.308Z,63.80
2022-11-25T06:19:38.773Z,64.01
2022-11-25T06:22:06.591Z,63.76
2022-11-25T06:24:35.035Z,63.84
2022-11-25T06:27:06.205Z,64.01
2022-11-25T06:29:35.664Z,63.82
2022-11-25T06:32:03.023Z,63.91
2022-11-25T06:34:55.916Z,64.19
2022-11-25T06:37:46.059Z,64.29
2022-11-25T06:40:13.244Z,64.18
2022-11-25T06:42:40.451Z,64.20
2022-11-25T06:45:08.180Z,64.63
2022-11-25T06:47:35.086Z,64.35
2022-11-25T06:50:01.996Z,64.32
2022-11-25T06:52:31.628Z,64.48
2022-11-25T06:54:58.582Z,64.64
2022-11-25T06:57:25.508Z,64.48
2022-11-25T06:59:52.482Z,64.30
2022-11-25T07:02:19.603Z,64.49
2022-11-25T07:04:46.549Z,64.63
2022-11-25T07:07:13.498Z,64.48
2022-11-25T07:09:40.584Z,64.65
2022-11-25T07:12:07.679Z,64.47
2022-11-25T07:14:34.859Z,64.55
2022-11-25T07:17:01.993Z,64.47
2022-11-25T07:19:33.244Z,64.40
2022-11-25T07:22:00.121Z,64.46
2022-11-25T07:24:27.190Z,64.58
2022-11-25T07:26:54.061Z,64.77
2022-11-25T07:29:50.429Z,64.64
2022-11-25T07:32:10.788Z,64.36
2022-11-25T07:34:38.302Z,64.50
2022-11-25T07:37:05.178Z,64.53
2022-11-25T07:39:32.098Z,64.73
2022-11-25T07:41:58.960Z,64.61
2022-11-25T07:44:25.908Z,64.74
2022-11-25T07:47:00.476Z,64.76
2022-11-25T07:49:27.387Z,64.81
2022-11-25T07:51:59.567Z,64.88
2022-11-25T07:54:26.810Z,64.84
2022-11-25T07:56:53.791Z,64.88
2022-11-25T07:59:23.059Z,65.05
2022-11-25T08:01:55.283Z,64.90
2022-11-25T08:04:23.219Z,65.07
2022-11-25T08:06:51.914Z,64.93
2022-11-25T08:09:22.371Z,64.93
2022-11-25T08:11:49.723Z,65.00
2022-11-25T08:14:17.556Z,64.94
2022-11-25T08:16:44.868Z,65.00
2022-11-25T08:19:15.810Z,64.98
2022-11-25T08:21:43.230Z,64.82
2022-11-25T08:24:20.229Z,64.92
2022-11-25T08:26:47.988Z,64.95
2022-11-25T08:29:17.012Z,64.76
2022-11-25T08:31:44.102Z,64.84
2022-11-25T08:34:22.948Z,64.82
2022-11-25T08:36:53.506Z,64.88
2022-11-25T08:39:50.410Z,64.94
2022-11-25T08:42:08.884Z,64.98
2022-11-25T08:44:36.304Z,64.72
2022-11-25T08:47:03.301Z,64.56
2022-11-25T08:49:32.735Z,64.82
2022-11-25T08:52:02.986Z,65.01
2022-11-25T08:54:30.654Z,65.25
2022-11-25T08:56:57.527Z,65.52
2022-11-25T08:59:25.207Z,65.26
2022-11-25T09:01:52.279Z,65.19
2022-11-25T09:04:19.259Z,65.18
2022-11-25T09:06:46.192Z,65.23
2022-11-25T09:09:13.063Z,65.27
2022-11-25T09:11:40.100Z,65.15
2022-11-25T09:14:07.113Z,65.34
2022-11-25T09:16:34.268Z,65.53
2022-11-25T09:19:01.277Z,65.51
2022-11-25T09:21:28.272Z,65.69
2022-11-25T09:23:55.339Z,65.91
2022-11-25T09:26:28.927Z,65.75
2022-11-25T09:28:56.612Z,65.43
2022-11-25T09:31:24.300Z,65.63
2022-11-25T09:33:51.199Z,65.52
2022-11-25T09:36:19.624Z,65.11
2022-11-25T09:38:46.874Z,65.48
2022-11-25T09:41:52.112Z,65.47
2022-11-25T09:45:14.445Z,65.92
2022-11-25T09:48:23.248Z,65.90
2022-11-25T09:51:17.508Z,65.82
2022-11-25T09:53:54.169Z,65.82
2022-11-25T09:56:42.787Z,65.84
2022-11-25T09:59:19.109Z,66.06
2022-11-25T10:02:02.229Z,65.91
2022-11-25T10:04:44.530Z,65.82
2022-11-25T10:07:21.565Z,65.82
2022-11-25T10:09:48.506Z,66.06
2022-11-25T10:12:32.919Z,66.02
2022-11-25T10:15:13.946Z,66.08
2022-11-25T10:17:50.074Z,65.77
2022-11-25T10:20:25.594Z,65.39
2022-11-25T10:22:57.288Z,65.42
2022-11-25T10:25:36.858Z,65.27
2022-11-25T10:28:36.454Z,65.52
2022-11-25T10:31:20.817Z,65.37
2022-11-25T10:33:53.096Z,65.17
2022-11-25T10:36:40.461Z,65.04
2022-11-25T10:39:24.619Z,65.54
2022-11-25T10:41:55.795Z,65.27
2022-11-25T10:44:35.384Z,65.28
2022-11-25T10:47:31.557Z,64.86
2022-11-25T10:50:20.663Z,64.77
2022-11-25T10:52:57.792Z,64.77
2022-11-25T10:55:31.609Z,64.98
2022-11-25T10:58:00.038Z,64.79
2022-11-25T11:00:38.884Z,65.04
2022-11-25T11:03:23.407Z,65.15
2022-11-25T11:05:53.194Z,65.28
2022-11-25T11:08:37.536Z,65.41
2022-11-25T11:11:21.504Z,65.27
2022-11-25T11:13:50.819Z,65.14
2022-11-25T11:16:41.953Z,64.83
2022-11-25T11:19:26.588Z,64.74
2022-11-25T11:21:56.211Z,65.29
2022-11-25T11:24:32.171Z,65.24
2022-11-25T11:27:25.286Z,65.32
2022-11-25T11:30:13.738Z,65.20
2022-11-25T11:32:45.273Z,65.04
2022-11-25T11:35:41.650Z,65.41
2022-11-25T11:38:26.603Z,65.32
2022-11-25T11:41:04.585Z,64.71
2022-11-25T11:44:07.882Z,64.50
2022-11-25T11:47:15.529Z,64.27
2022-11-25T11:50:27.019Z,64.42
2022-11-25T11:53:23.517Z,64.24
2022-11-25T11:56:36.539Z,63.84
2022-11-25T11:59:35.579Z,63.93
2022-11-25T12:02:24.420Z,63.73
2022-11-25T12:05:05.253Z,63.84
2022-11-25T12:07:52.117Z,63.38
2022-11-25T12:10:32.875Z,63.16
2022-11-25T12:13:43.020Z,63.24
2022-11-25T12:16:27.814Z,63.10
2022-11-25T12:19:24.359Z,63.09
2022-11-25T12:22:07.869Z,62.46
2022-11-25T12:24:49.954Z,62.68
2022-11-25T12:27:36.277Z,62.69
2022-11-25T12:30:21.269Z,62.75
2022-11-25T12:33:18.132Z,62.52
2022-11-25T12:36:06.659Z,62.51
2022-11-25T12:38:46.568Z,62.41
2022-11-25T12:41:42.516Z,62.46
2022-11-25T12:44:20.112Z,62.27
2022-11-25T12:46:50.375Z,62.67
2022-11-25T12:49:23.905Z,62.42
2022-11-25T12:52:17.963Z,62.48
2022-11-25T12:55:18.152Z,62.06
2022-11-25T12:58:24.246Z,61.91
2022-11-25T13:01:39.061Z,61.96
2022-11-25T13:04:44.683Z,62.16
2022-11-25T13:07:56.584Z,62.41
2022-11-25T13:10:59.375Z,62.25
2022-11-25T13:14:25.377Z,62.23
2022-11-25T13:16:54.862Z,62.49
2022-11-25T13:19:22.712Z,62.37
2022-11-25T13:22:06.429Z,62.52
2022-11-25T13:24:39.390Z,62.30
2022-11-25T13:27:40.207Z,62.32
2022-11-25T13:30:32.786Z,62.40
2022-11-25T13:33:11.877Z,62.20
2022-11-25T13:35:54.715Z,62.39
2022-11-25T13:38:30.472Z,62.37
2022-11-25T13:41:01.179Z,62.43
2022-11-25T13:43:28.352Z,62.41
2022-11-25T13:45:56.338Z,62.51
2022-11-25T13:48:32.463Z,62.08
2022-11-25T13:51:26.959Z,62.18
2022-11-25T13:54:04.900Z,62.22
2022-11-25T13:56:37.710Z,62.36
2022-11-25T13:59:10.562Z,62.35
2022-11-25T14:01:52.979Z,62.27
2022-11-25T14:04:41.024Z,62.40
2022-11-25T14:07:33.959Z,62.70
2022-11-25T14:10:13.373Z,62.71
2022-11-25T14:13:22.103Z,62.71
2022-11-25T14:16:16.566Z,62.79
2022-11-25T14:19:52.466Z,63.32
2022-11-25T14:23:02.788Z,63.18
2022-11-25T14:25:44.356Z,63.29
2022-11-25T14:28:56.902Z,62.98
2022-11-25T14:31:45.476Z,62.83
2022-11-25T14:34:27.271Z,62.87
2022-11-25T14:37:12.510Z,62.72
2022-11-25T14:40:10.253Z,62.93
2022-11-25T14:42:42.288Z,63.05
2022-11-25T14:45:29.717Z,62.95
2022-11-25T14:47:57.144Z,62.87
2022-11-25T14:50:34.719Z,62.91
2022-11-25T14:53:11.301Z,62.97
2022-11-25T14:55:38.419Z,62.69
2022-11-25T14:58:05.276Z,62.76
2022-11-25T15:00:32.176Z,62.76
2022-11-25T15:03:07.268Z,62.84
2022-11-25T15:05:37.489Z,63.02
2022-11-25T15:08:14.737Z,62.72
2022-11-25T15:10:55.091Z,62.99
2022-11-25T15:13:46.762Z,63.08
2022-11-25T15:16:23.208Z,62.95
2022-11-25T15:18:55.658Z,63.15
2022-11-25T15:21:33.085Z,63.36
2022-11-25T15:24:00.739Z,63.16
2022-11-25T15:26:31.727Z,63.33
2022-11-25T15:29:11.333Z,63.33
2022-11-25T15:31:41.485Z,63.38
2022-11-25T15:34:13.293Z,62.95
2022-11-25T15:36:41.092Z,63.41
2022-11-25T15:39:25.877Z,63.57
2022-11-25T15:41:57.377Z,63.19
2022-11-25T15:44:48.184Z,63.38
2022-11-25T15:47:28.400Z,63.33
2022-11-25T15:50:30.059Z,63.32
2022-11-25T15:53:00.319Z,63.55
2022-11-25T15:55:38.437Z,63.40
2022-11-25T15:58:18.995Z,63.21
2022-11-25T16:01:07.267Z,63.44
2022-11-25T16:03:35.441Z,63.03
2022-11-25T16:06:02.585Z,63.56
2022-11-25T16:08:37.398Z,63.52
2022-11-25T16:11:19.245Z,63.20
2022-11-25T16:13:51.063Z,63.42
2022-11-25T16:16:25.494Z,63.35
2022-11-25T16:19:16.866Z,63.69
2022-11-25T16:21:53.071Z,63.65
2022-11-25T16:24:49.771Z,64.00
2022-11-25T16:27:29.927Z,63.63
2022-11-25T16:30:16.373Z,63.82
2022-11-25T16:32:43.273Z,64.41
2022-11-25T16:35:21.733Z,64.38
2022-11-25T16:37:49.797Z,64.72
2022-11-25T16:40:18.568Z,65.05
2022-11-25T16:42:49.936Z,65.12
2022-11-25T16:45:22.955Z,65.22
2022-11-25T16:47:50.102Z,65.50
2022-11-25T16:50:19.458Z,65.63
2022-11-25T16:52:46.560Z,65.88
2022-11-25T16:55:14.154Z,65.74
2022-11-25T16:57:42.752Z,66.20
2022-11-25T17:00:16.871Z,66.15
2022-11-25T17:02:44.996Z,66.44
2022-11-25T17:05:20.036Z,66.15
2022-11-25T17:07:48.246Z,65.99
2022-11-25T17:10:15.190Z,65.76
2022-11-25T17:12:44.155Z,65.61
2022-11-25T17:15:21.201Z,65.94
2022-11-25T17:17:49.278Z,65.44
2022-11-25T17:20:21.619Z,65.27
2022-11-25T17:22:49.694Z,65.24
2022-11-25T17:25:16.638Z,64.95
2022-11-25T17:27:46.083Z,65.30
2022-11-25T17:30:24.760Z,65.28
2022-11-25T17:33:04.938Z,65.22
2022-11-25T17:35:31.822Z,65.46
2022-11-25T17:38:00.382Z,65.50
2022-11-25T17:40:27.464Z,65.67
2022-11-25T17:42:54.386Z,65.68
2022-11-25T17:45:21.835Z,65.92
2022-11-25T17:47:49.019Z,65.93
2022-11-25T17:50:25.559Z,65.89
2022-11-25T17:52:52.846Z,66.14
2022-11-25T17:55:21.834Z,66.22
2022-11-25T17:57:49.715Z,66.69
2022-11-25T18:00:21.089Z,66.53
2022-11-25T18:02:48.259Z,66.93
2022-11-25T18:05:26.771Z,66.79
2022-11-25T18:07:54.235Z,66.94
2022-11-25T18:10:25.696Z,66.85
2022-11-25T18:12:55.454Z,66.27
2022-11-25T18:15:30.460Z,66.54
2022-11-25T18:18:19.206Z,66.62
2022-11-25T18:20:46.098Z,67.14
2022-11-25T18:23:13.008Z,67.39
2022-11-25T18:25:40.593Z,67.00
2022-11-25T18:28:07.769Z,66.73
2022-11-25T18:30:36.296Z,66.96
2022-11-25T18:33:06.153Z,67.29
2022-11-25T18:35:36.471Z,67.19
2022-11-25T18:38:04.742Z,66.21
2022-11-25T18:40:32.255Z,66.16
2022-11-25T18:43:02.621Z,65.81
2022-11-25T18:45:37.060Z,65.88
2022-11-25T18:48:17.027Z,65.87
2022-11-25T18:50:45.470Z,65.93
2022-11-25T18:53:13.745Z,65.34
2022-11-25T18:55:40.983Z,65.63
2022-11-25T18:58:21.766Z,66.58
2022-11-25T19:00:51.312Z,67.70
2022-11-25T19:03:22.712Z,68.01
2022-11-25T19:05:50.236Z,68.12
2022-11-25T19:08:18.669Z,67.12
2022-11-25T19:10:47.428Z,66.95
2022-11-25T19:13:33.489Z,66.32
2022-11-25T19:16:12.154Z,66.14
2022-11-25T19:18:39.517Z,65.51
2022-11-25T19:21:06.503Z,65.36
2022-11-25T19:23:35.939Z,65.30
2022-11-25T19:26:12.426Z,65.38
2022-11-25T19:28:39.397Z,65.13
2022-11-25T19:31:06.758Z,64.84
2022-11-25T19:33:37.078Z,64.47
2022-11-25T19:36:05.647Z,64.56
2022-11-25T19:38:33.062Z,65.08
2022-11-25T19:40:59.969Z,65.02
2022-11-25T19:43:27.076Z,64.58
2022-11-25T19:45:56.289Z,64.61
2022-11-25T19:48:26.953Z,64.65
2022-11-25T19:50:59.465Z,64.33
2022-11-25T19:53:33.189Z,64.76
2022-11-25T19:56:04.111Z,65.14
2022-11-25T19:58:31.567Z,65.01
2022-11-25T20:01:02.584Z,65.43
2022-11-25T20:03:31.321Z,65.62
2022-11-25T20:05:58.550Z,65.11
2022-11-25T20:08:28.122Z,65.09
2022-11-25T20:10:56.572Z,65.94
2022-11-25T20:13:25.935Z,66.34
2022-11-25T20:15:53.849Z,66.43
2022-11-25T20:18:23.669Z,66.71
2022-11-25T20:21:00.384Z,66.20
2022-11-25T20:23:43.629Z,66.20
2022-11-25T20:26:27.987Z,66.09
2022-11-25T20:28:54.874Z,66.15
2022-11-25T20:31:25.136Z,66.43
2022-11-25T20:33:54.392Z,66.41
2022-11-25T20:36:29.331Z,66.57
2022-11-25T20:38:58.805Z,67.00
2022-11-25T20:41:28.081Z,66.51
2022-11-25T20:43:56.735Z,66.28
2022-11-25T20:46:31.430Z,66.73
2022-11-25T20:49:06.659Z,66.96
2022-11-25T20:51:34.032Z,67.18
2022-11-25T20:54:01.327Z,67.11
2022-11-25T20:56:29.446Z,66.61
2022-11-25T20:58:56.960Z,66.95
2022-11-25T21:01:25.094Z,66.97
2022-11-25T21:03:52.081Z,66.74
2022-11-25T21:06:26.625Z,65.82
2022-11-25T21:08:56.490Z,65.03
2022-11-25T21:11:23.567Z,64.41
2022-11-25T21:13:52.010Z,64.29
2022-11-25T21:16:18.997Z,64.02
2022-11-25T21:18:45.923Z,63.85
2022-11-25T21:21:34.878Z,63.74
2022-11-25T21:24:25.295Z,63.74
2022-11-25T21:26:52.343Z,63.64
2022-11-25T21:29:19.598Z,63.39
2022-11-25T21:31:46.556Z,63.63
2022-11-25T21:34:14.175Z,63.21
2022-11-25T21:36:41.990Z,63.08
2022-11-25T21:39:27.127Z,63.24
2022-11-25T21:41:55.261Z,62.95
2022-11-25T21:44:31.497Z,62.76
2022-11-25T21:46:58.472Z,63.12
2022-11-25T21:49:26.683Z,62.83
2022-11-25T21:51:53.599Z,63.03
2022-11-25T21:54:20.510Z,62.58
2022-11-25T21:56:47.370Z,63.15
2022-11-25T21:59:19.602Z,63.22
2022-11-25T22:01:47.485Z,62.90
2022-11-25T22:04:16.664Z,62.97
2022-11-25T22:06:43.927Z,63.02
2022-11-25T22:09:11.669Z,62.69
2022-11-25T22:11:50.204Z,62.95
2022-11-25T22:14:34.442Z,63.10
2022-11-25T22:17:04.991Z,62.95
2022-11-25T22:19:32.136Z,62.79
2022-11-25T22:21:59.063Z,63.13
2022-11-25T22:24:26.137Z,62.80
2022-11-25T22:26:57.708Z,62.66
2022-11-25T22:29:34.175Z,62.76
2022-11-25T22:32:02.415Z,62.65
2022-11-25T22:34:29.399Z,62.39
2022-11-25T22:36:56.323Z,62.88
2022-11-25T22:39:26.949Z,62.78
2022-11-25T22:42:06.812Z,62.69
2022-11-25T22:44:42.851Z,63.11
2022-11-25T22:47:23.123Z,63.24
2022-11-25T22:49:50.891Z,62.79
2022-11-25T22:52:25.619Z,62.86
2022-11-25T22:54:52.874Z,62.90
2022-11-25T22:57:20.226Z,62.94
2022-11-25T22:59:47.098Z,63.22
2022-11-25T23:02:26.755Z,63.03
2022-11-25T23:04:55.912Z,63.16
2022-11-25T23:07:23.895Z,63.36
2022-11-25T23:09:51.251Z,63.25
2022-11-25T23:12:18.676Z,63.18
2022-11-25T23:14:45.690Z,63.46
2022-11-25T23:17:25.225Z,63.35
2022-11-25T23:19:53.375Z,63.38
2022-11-25T23:22:20.617Z,63.44
2022-11-25T23:24:48.876Z,63.71
2022-11-25T23:27:16.296Z,63.30
2022-11-25T23:29:43.228Z,63.73
2022-11-25T23:32:18.710Z,63.47
2022-11-25T23:34:46.014Z,63.32
2022-11-25T23:37:13.920Z,63.49
2022-11-25T23:39:41.075Z,63.29
2022-11-25T23:42:19.020Z,63.66
2022-11-25T23:44:46.182Z,63.58
2022-11-25T23:47:19.043Z,63.65
2022-11-25T23:49:48.874Z,63.64
2022-11-25T23:52:22.262Z,63.46
2022-11-25T23:54:51.342Z,63.37
2022-11-25T23:57:21.829Z,63.62
2022-11-25T23:59:49.743Z,63.32
